Impacts METAR Board
IDs:

KPDX - Portland Intl Arpt, OR, US

Updated at: 2000 UTC 02 Oct 2022
Potential Impact None Slight Moderate High
Time 02/08Z 02/09Z 02/10Z 02/11Z 02/12Z 02/13Z 02/14Z 02/15Z 02/16Z 02/17Z 02/18Z 02/19Z 02/20Z
Temp63 61 62 59 58 56 58 58 63 67 71 75 78
Dewpt57 56 58 55 54 53 54 54 55 55 54 55 55
Altim29.89 29.89 29.88 29.89 29.89 29.91 29.92 29.94 29.94 29.94 29.95 29.94 29.94
VIS10 10 10 10 10 10 10 9 10 10 10 10 10
CIG-- -- -- -- -- -- -- -- -- -- -- -- --
CoverCLRCLRCLRCLRCLRCLRCLRCLRCLRCLRCLRCLRCLR
FltCatVFRVFRVFRVFRVFRVFRVFRVFRVFRVFRVFRVFRVFR
WX--------------------------
WDir300260330270270260290270300290290300310
WSpd3 4 4 4 4 5 3 4 4 5 4 7 5
WGst-- -- -- -- -- -- -- -- -- -- -- -- --
Raw hourly METARs
KPDX 020753Z 30003KT 10SM CLR 17/14 A2989 RMK AO2 SLP119 T01720139 403000122 $
KPDX 020853Z 26004KT 10SM CLR 16/13 A2989 RMK AO2 SLP119 T01610133 51002 $
KPDX 020953Z 33004KT 10SM CLR 17/14 A2988 RMK AO2 SLP117 T01670144 $
KPDX 021053Z 27004KT 10SM CLR 15/13 A2989 RMK AO2 SLP118 T01500128 $
KPDX 021153Z 27004KT 10SM CLR 14/12 A2989 RMK AO2 SLP121 T01440122 10189 20139 53001 $
KPDX 021253Z 26005KT 10SM CLR 13/12 A2991 RMK AO2 SLP125 T01330117 $
KPDX 021353Z 29003KT 10SM CLR 14/12 A2992 RMK AO2 SLP129 T01440122 $
KPDX 021453Z 27004KT 9SM CLR 14/12 A2994 RMK AO2 SLP135 T01440122 53014 $
KPDX 021553Z 30004KT 10SM CLR 17/13 A2994 RMK AO2 SLP138 T01720128 $
KPDX 021653Z 29005KT 10SM CLR 19/13 A2994 RMK AO2 SLP138 T01940128 $
KPDX 021753Z 29004KT 10SM CLR 22/12 A2995 RMK AO2 SLP139 T02170122 10222 20133 51004 $
KPDX 021853Z 30007KT 10SM CLR 24/13 A2994 RMK AO2 SLP137 T02390128 $
KPDX 021953Z 31005KT 10SM CLR 26/13 A2994 RMK AO2 SLP136 T02560128 $



Page loaded:  20:28 UTC  |   01:28 PM Pacific  |   02:28 PM Mountain  |   03:28 PM Central  |   04:28 PM Eastern

 

ADVISORIES

FORECASTS

FORECASTS

OBSERVATIONS

USER TOOLS

ABOUT US